createdAt,value
2022-08-17T00:01:15.822Z,8.00
2022-08-17T00:11:20.915Z,8.30
2022-08-17T00:21:23.963Z,7.80
2022-08-17T00:31:20.154Z,8.10
2022-08-17T00:41:20.103Z,7.50
2022-08-17T00:51:25.207Z,7.40
2022-08-17T01:01:24.872Z,7.30
2022-08-17T01:11:24.445Z,7.50
2022-08-17T01:21:24.559Z,7.00
2022-08-17T01:31:29.861Z,6.90
2022-08-17T01:41:29.504Z,6.60
2022-08-17T01:51:28.977Z,7.20
2022-08-17T02:01:29.249Z,6.90
2022-08-17T02:11:34.365Z,7.00
2022-08-17T02:21:33.968Z,6.80
2022-08-17T02:31:33.609Z,6.40
2022-08-17T02:41:33.338Z,6.60
2022-08-17T02:51:38.599Z,6.40
2022-08-17T03:01:38.278Z,6.90
2022-08-17T03:11:37.685Z,6.30
2022-08-17T03:21:37.535Z,6.50
2022-08-17T03:31:42.822Z,6.90
2022-08-17T03:41:42.286Z,6.70
2022-08-17T03:51:41.889Z,6.90
2022-08-17T04:01:41.450Z,7.00
2022-08-17T04:11:46.465Z,7.20
2022-08-17T04:21:46.402Z,6.60
2022-08-17T04:31:45.855Z,6.80
2022-08-17T04:41:45.343Z,6.80
2022-08-17T04:51:54.779Z,6.80
2022-08-17T05:01:50.152Z,6.30
2022-08-17T05:11:49.935Z,6.50
2022-08-17T05:21:49.415Z,6.50
2022-08-17T05:31:54.555Z,6.80
2022-08-17T05:41:54.327Z,7.10
2022-08-17T05:51:54.156Z,6.80
2022-08-17T06:01:53.636Z,6.60
2022-08-17T06:11:58.711Z,6.50
2022-08-17T06:21:58.269Z,6.90
2022-08-17T06:31:58.022Z,6.40
2022-08-17T06:41:58.167Z,6.50
2022-08-17T06:52:03.159Z,5.80
2022-08-17T07:02:02.646Z,6.30
2022-08-17T07:12:02.298Z,6.40
2022-08-17T07:22:07.416Z,6.50
2022-08-17T07:32:07.228Z,6.50
2022-08-17T07:42:06.817Z,6.50
2022-08-17T07:52:24.375Z,6.40
2022-08-17T08:02:11.629Z,7.10
2022-08-17T08:12:11.095Z,7.10
2022-08-17T08:22:10.749Z,6.60
2022-08-17T08:32:10.823Z,6.50
2022-08-17T08:42:16.103Z,7.80
2022-08-17T08:52:15.749Z,7.70
2022-08-17T09:02:15.349Z,8.00
2022-08-17T09:12:20.669Z,8.10
2022-08-17T09:22:20.134Z,8.50
2022-08-17T09:32:19.797Z,8.60
2022-08-17T09:42:19.447Z,8.80
2022-08-17T09:52:24.738Z,8.30
2022-08-17T10:02:24.215Z,8.90
2022-08-17T10:12:28.300Z,9.60
2022-08-17T10:22:32.857Z,9.70
2022-08-17T10:32:28.788Z,9.80
2022-08-17T10:42:30.212Z,10.10
2022-08-17T10:52:28.123Z,10.00
2022-08-17T11:02:33.263Z,11.40
2022-08-17T11:12:33.061Z,11.90
2022-08-17T11:22:33.641Z,12.40
2022-08-17T11:32:37.508Z,12.00
2022-08-17T11:42:37.307Z,12.80
2022-08-17T11:52:36.796Z,13.70
2022-08-17T12:02:36.415Z,12.60
2022-08-17T12:12:41.565Z,13.10
2022-08-17T12:22:41.199Z,12.70
2022-08-17T12:32:41.122Z,15.40
2022-08-17T12:42:46.146Z,13.30
2022-08-17T12:52:45.930Z,12.00
2022-08-17T13:02:45.271Z,11.50
2022-08-17T13:12:50.459Z,11.50
2022-08-17T13:22:50.049Z,12.60
2022-08-17T13:32:49.693Z,12.40
2022-08-17T13:42:54.838Z,11.40
2022-08-17T13:52:54.469Z,10.40
2022-08-17T14:02:54.095Z,12.60
2022-08-17T14:12:59.621Z,12.70
2022-08-17T14:22:58.859Z,13.30
2022-08-17T14:32:58.497Z,14.40
2022-08-17T14:43:03.818Z,16.00
2022-08-17T14:53:03.282Z,15.20
2022-08-17T15:03:03.222Z,15.60
2022-08-17T15:13:08.375Z,18.90
2022-08-17T15:23:08.005Z,18.10
2022-08-17T15:33:07.868Z,17.60
2022-08-17T15:43:13.164Z,19.50
2022-08-17T15:53:12.638Z,20.00
2022-08-17T16:03:16.231Z,18.80
2022-08-17T16:13:18.164Z,16.70
2022-08-17T16:23:20.151Z,18.30
2022-08-17T16:33:16.763Z,18.50
2022-08-17T16:43:21.920Z,17.20
2022-08-17T16:53:21.716Z,20.40
2022-08-17T17:03:21.183Z,22.80
2022-08-17T17:13:26.350Z,19.70
2022-08-17T17:23:25.978Z,17.10
2022-08-17T17:33:25.786Z,19.80
2022-08-17T17:43:38.681Z,20.20
2022-08-17T17:53:35.366Z,18.80
2022-08-17T18:03:30.050Z,22.90
2022-08-17T18:13:30.196Z,20.30
2022-08-17T18:23:35.322Z,20.80
2022-08-17T18:33:34.957Z,19.60
2022-08-17T18:43:36.579Z,20.10
2022-08-17T18:53:41.315Z,19.20
2022-08-17T19:03:39.308Z,18.90
2022-08-17T19:13:39.238Z,18.70
2022-08-17T19:23:38.928Z,20.50
2022-08-17T19:33:47.906Z,19.80
2022-08-17T19:43:43.839Z,19.40
2022-08-17T19:54:04.197Z,20.80
2022-08-17T20:03:48.431Z,17.90
2022-08-17T20:13:48.186Z,17.20
2022-08-17T20:23:47.811Z,29.70
2022-08-17T20:33:47.437Z,21.90
2022-08-17T20:43:52.431Z,19.80
2022-08-17T20:53:52.405Z,21.50
2022-08-17T21:03:52.204Z,21.10
2022-08-17T21:13:51.321Z,18.60
2022-08-17T21:23:56.465Z,18.20
2022-08-17T21:33:56.235Z,25.90
2022-08-17T21:43:55.869Z,20.50
2022-08-17T21:53:55.706Z,18.60
2022-08-17T22:04:00.651Z,21.00
2022-08-17T22:14:02.285Z,18.50
2022-08-17T22:23:59.719Z,18.60
2022-08-17T22:33:59.337Z,19.00
2022-08-17T22:43:59.192Z,18.10
2022-08-17T22:54:04.166Z,18.30
2022-08-17T23:04:03.777Z,18.60
2022-08-17T23:14:03.511Z,18.30
2022-08-17T23:24:03.128Z,18.40
2022-08-17T23:34:02.783Z,19.70
2022-08-17T23:44:07.920Z,19.50
2022-08-17T23:54:08.283Z,22.30
